METAR Data
IDs: Format: Raw Decoded Include TAF

Data at: 0424 UTC 26 Sep 2018

KGUP 260353Z AUTO 15009KT 10SM BKN095 18/08 A3023 RMK AO2 RAE0255 SLP090 P0000 T01830083
KGUP 260253Z AUTO 07006KT 10SM -RA OVC090 18/08 A3021 RMK AO2 RAB46 SLP093 P0000 60000 T01830083 53017
KGUP 260153Z AUTO 33004KT 10SM OVC110 21/04 A3019 RMK AO2 SLP089 T02110044
KGUP 260053Z AUTO 33004KT 10SM OVC100 22/06 A3016 RMK AO2 LTG DSNT SE SLP077 T02220056
KGUP 252353Z AUTO 00000KT 10SM OVC090 24/04 A3015 RMK AO2 SLP063 60015 T02390044 10256 20167 55006
KGUP 252253Z AUTO 35012KT 10SM SCT100 BKN110 25/06 A3015 RMK AO2 SLP057 T02500061
KGUP 252153Z AUTO VRB06KT 10SM CLR 24/08 A3015 RMK AO2 SLP059 T02440078
KGUP 252108Z AUTO 17010KT 10SM CLR 24/11 A3017 RMK AO2 T02390106
KGUP 252053Z AUTO 17009KT 10SM VCTS FEW085 23/12 A3017 RMK AO2 RAE15 SLP080 P0003 60015 T02280117 58015
KGUP 251953Z AUTO 29004KT 4SM RA FEW070 BKN090 OVC110 20/08 A3020 RMK AO2 LTG DSNT N RAB05E14B32 TSB31E48 SLP104 P0012 T02000078
KGUP 251937Z AUTO 31010KT 10SM -TSRA FEW080 BKN100 23/09 A3020 RMK AO2 LTG DSNT N AND NE RAB05E14B32 TSB31 P0001 T02280089
KGUP 251853Z AUTO 00000KT 10SM CLR 24/06 A3021 RMK AO2 SLP084 T02440056
KGUP 251753Z AUTO 07004KT 10SM CLR 24/06 A3023 RMK AO2 SLP089 60000 T02390061 10239 20117 58000
KGUP 251653Z AUTO 32004KT 10SM CLR 22/08 A3024 RMK AO2 SLP098 T02170083
KGUP 251553Z AUTO 24005KT 10SM CLR 19/10 A3023 RMK AO2 SLP101 T01890100
KGUP 251453Z AUTO 21006KT 10SM CLR 17/10 A3023 RMK AO2 SLP099 60000 T01670100 51012
KGUP 251353Z AUTO 00000KT 10SM CLR 13/10 A3022 RMK AO2 SLP109 T01280100
KGUP 251253Z AUTO 00000KT 10SM BKN080 BKN090 OVC120 13/10 A3020 RMK AO2 RAE10B37E46 SLP090 P0000 T01280100
KGUP 251153Z AUTO 00000KT 10SM -RA BKN100 OVC110 13/09 A3019 RMK AO2 RAB53 SLP071 P0000 60000 70001 T01330094 10144 20111 51004
KGUP 251053Z AUTO 00000KT 10SM BKN110 13/10 A3018 RMK AO2 SLP065 T01330100
KGUP 250953Z AUTO 22004KT 10SM FEW080 14/11 A3018 RMK AO2 RAB08E18 SLP059 P0000 T01390106
KGUP 250853Z AUTO 07004KT 10SM FEW090 BKN100 12/10 A3017 RMK AO2 LTG DSNT W SLP071 T01220100 53006
KGUP 250753Z AUTO 00000KT 10SM FEW120 12/09 A3017 RMK AO2 SLP069 T01220094
KGUP 250653Z AUTO 00000KT 10SM CLR 13/11 A3015 RMK AO2 LTG DSNT SW SLP058 T01280106 402720083
KGUP 250553Z AUTO 00000KT 10SM BKN095 14/11 A3015 RMK AO2 SLP058 60001 T01390106 10256 20133 51004
KGUP 250453Z AUTO 00000KT 10SM BKN095 15/12 A3014 RMK AO2 SLP065 T01500117
KGUP 250421Z AUTO VRB03KT 10SM FEW120 16/11 A3014 RMK AO2 T01560106
KGUP 250353Z AUTO 19005KT 10SM VCTS FEW070 BKN095 BKN110 16/11 A3015 RMK AO2 LTG DSNT SW RAB03E40 SLP072 P0001 T01610106
KGUP 250339Z AUTO 19005KT 10SM VCTS -RA FEW048 SCT070 OVC100 16/11 A3015 RMK AO2 LTG DSNT SW RAB03 P0001 T01610106
KGUP 250253Z AUTO VRB03KT 10SM FEW090 FEW120 18/07 A3013 RMK AO2 LTG DSNT W SLP066 60000 T01830072 53018
KGUP 250153Z AUTO 33010KT 10SM FEW120 19/08 A3011 RMK AO2 PK WND 30027/0120 RAB18E30 SLP076 P0000 T01890078
KGUP 250053Z AUTO 31014KT 10SM OVC090 23/05 A3008 RMK AO2 SLP054 T02280050
KGUP 242353Z AUTO 25014KT 10SM BKN100 BKN120 26/03 A3007 RMK AO2 SLP038 T02560028 10272 20239 55008
KGUP 242253Z AUTO 26012KT 10SM FEW100 27/02 A3006 RMK AO2 SLP036 T02670017
KGUP 242153Z AUTO 26013G19KT 10SM CLR 27/02 A3008 RMK AO2 SLP047 T02670017
KGUP 242053Z AUTO 27013G22KT 10SM SCT110 26/01 A3010 RMK AO2 SLP053 T02560006 58021
KGUP 241953Z AUTO 29013G19KT 10SM BKN100 25/01 A3012 RMK AO2 SLP062 T02500006
KGUP 241853Z AUTO 24017G21KT 10SM SCT100 26/02 A3015 RMK AO2 SLP058 T02610022
KGUP 241753Z AUTO 21011KT 10SM CLR 24/04 A3017 RMK AO2 SLP075 T02440044 10244 20106 58005
KGUP 241653Z AUTO 25011KT 10SM OVC100 22/04 A3019 RMK AO2 SLP096 T02170039